createdAt,value
2023-01-24T10:39:38.591Z,12.35
2023-01-24T10:42:23.541Z,11.75
2023-01-24T10:47:39.213Z,9.35
2023-01-24T10:50:13.510Z,10.90
2023-01-24T10:52:40.206Z,10.35
2023-01-24T10:55:32.848Z,11.85
2023-01-24T10:58:00.181Z,11.65
2023-01-24T11:00:35.737Z,12.73
2023-01-24T11:03:05.577Z,11.50
2023-01-24T11:05:52.919Z,11.07
2023-01-24T11:08:23.634Z,11.68
2023-01-24T11:10:55.888Z,10.48
2023-01-24T11:13:37.549Z,11.20
2023-01-24T11:16:04.501Z,11.20
2023-01-24T11:18:34.433Z,11.20
2023-01-24T11:21:09.104Z,10.82
2023-01-24T11:23:36.014Z,11.23
2023-01-24T11:26:05.391Z,10.85
2023-01-24T11:28:37.067Z,10.77
2023-01-24T11:31:16.949Z,11.15
2023-01-24T11:34:16.869Z,11.27
2023-01-24T11:37:05.668Z,10.60
2023-01-24T11:39:58.680Z,10.68
2023-01-24T11:42:28.215Z,10.93
2023-01-24T11:45:04.070Z,10.48
2023-01-24T11:47:44.961Z,11.00
2023-01-24T11:50:38.125Z,10.57
2023-01-24T11:53:17.284Z,10.70
2023-01-24T11:56:02.132Z,11.38
2023-01-24T11:58:49.951Z,11.40
2023-01-24T12:01:35.393Z,10.85
2023-01-24T12:04:29.438Z,11.10
2023-01-24T12:07:09.195Z,9.88
2023-01-24T12:10:07.784Z,10.85
2023-01-24T12:12:54.755Z,10.50
2023-01-24T12:15:31.445Z,11.88
2023-01-24T12:18:27.034Z,11.38
2023-01-24T12:21:11.348Z,11.45
2023-01-24T12:24:13.085Z,11.35
2023-01-24T12:26:49.084Z,9.60
2023-01-24T12:29:19.168Z,10.32
2023-01-24T12:32:04.335Z,11.63
2023-01-24T12:34:51.896Z,11.10
2023-01-24T12:38:08.698Z,10.82
2023-01-24T12:40:53.764Z,12.18
2023-01-24T12:43:30.664Z,11.60
2023-01-24T12:46:28.237Z,10.85
2023-01-24T12:49:44.658Z,11.65
2023-01-24T12:52:45.679Z,11.02
2023-01-24T12:55:17.500Z,12.15
2023-01-24T12:57:51.489Z,12.00
2023-01-24T13:00:24.713Z,12.43
2023-01-24T13:03:05.968Z,11.85
2023-01-24T13:06:02.751Z,11.43
2023-01-24T13:08:48.906Z,11.48
2023-01-24T13:11:22.092Z,10.63
2023-01-24T13:14:02.148Z,10.80
2023-01-24T13:16:44.762Z,11.30
2023-01-24T13:19:38.789Z,12.40
2023-01-24T13:22:36.712Z,11.80
2023-01-24T13:25:34.428Z,11.07
2023-01-24T13:28:23.888Z,11.88
2023-01-24T13:31:03.562Z,10.90
2023-01-24T13:33:47.192Z,11.73
2023-01-24T13:36:22.072Z,11.27
2023-01-24T13:38:49.774Z,11.80
2023-01-24T13:41:37.746Z,10.85
2023-01-24T13:44:24.332Z,11.45
2023-01-24T13:47:03.186Z,12.63
2023-01-24T13:49:29.804Z,10.65
2023-01-24T13:51:57.998Z,9.95
2023-01-24T13:54:41.620Z,11.82
2023-01-24T13:57:14.247Z,11.32
2023-01-24T13:59:43.529Z,11.73
2023-01-24T14:02:30.565Z,11.73
2023-01-24T14:04:57.443Z,10.05
2023-01-24T14:07:40.105Z,11.98
2023-01-24T14:10:09.133Z,11.88
2023-01-24T14:12:40.886Z,11.45
2023-01-24T14:15:10.372Z,12.30
2023-01-24T14:17:44.370Z,12.20
2023-01-24T14:20:23.328Z,12.05
2023-01-24T14:22:55.669Z,11.82
2023-01-24T14:25:47.584Z,12.13
2023-01-24T14:28:33.207Z,11.73
2023-01-24T14:31:22.290Z,13.43
2023-01-24T14:33:58.302Z,11.35
2023-01-24T14:36:32.390Z,11.52
2023-01-24T14:39:21.665Z,11.43
2023-01-24T14:42:00.119Z,10.70
2023-01-24T14:45:04.287Z,10.98
2023-01-24T14:47:31.052Z,11.02
2023-01-24T14:49:59.466Z,10.52
2023-01-24T14:52:29.416Z,10.20
2023-01-24T14:54:59.179Z,10.48
2023-01-24T14:57:28.798Z,10.57
2023-01-24T15:00:11.786Z,11.73
2023-01-24T15:02:51.456Z,11.15
2023-01-24T15:05:36.859Z,10.40
2023-01-24T15:08:06.588Z,11.13
2023-01-24T15:10:38.647Z,12.57
2023-01-24T15:13:20.409Z,10.80
2023-01-24T15:15:47.418Z,10.93
2023-01-24T15:18:42.492Z,10.70
2023-01-24T15:21:27.351Z,11.32
2023-01-24T15:23:56.956Z,10.35
2023-01-24T15:26:36.244Z,10.52
2023-01-24T15:29:41.479Z,11.30
2023-01-24T15:32:33.675Z,12.93
2023-01-24T15:35:16.301Z,10.18
2023-01-24T15:37:43.108Z,9.60
2023-01-24T15:40:20.833Z,10.43
2023-01-24T15:43:07.094Z,10.75
2023-01-24T15:45:45.387Z,10.98
2023-01-24T15:48:22.525Z,11.18
2023-01-24T15:51:09.719Z,11.25
2023-01-24T15:53:41.299Z,11.73
2023-01-24T15:56:13.889Z,10.70
2023-01-24T15:58:40.612Z,10.88
2023-01-24T16:01:07.751Z,10.50
2023-01-24T16:03:34.421Z,10.85
2023-01-24T16:06:01.045Z,10.73
2023-01-24T16:08:27.721Z,10.93
2023-01-24T16:10:57.660Z,10.30
2023-01-24T16:13:34.716Z,10.27
2023-01-24T16:16:05.594Z,10.05
2023-01-24T16:18:32.555Z,10.25
2023-01-24T16:20:59.410Z,10.40
2023-01-24T16:23:26.058Z,10.10
2023-01-24T16:25:57.205Z,10.43
2023-01-24T16:28:25.986Z,10.40
2023-01-24T16:30:54.580Z,9.95
2023-01-24T16:33:22.376Z,14.35
2023-01-24T16:35:49.311Z,19.00
2023-01-24T16:38:16.159Z,12.50
2023-01-24T16:40:43.671Z,10.60
2023-01-24T16:43:19.439Z,9.80
2023-01-24T16:45:48.071Z,9.68
2023-01-24T16:48:15.832Z,10.73
2023-01-24T16:50:44.390Z,10.13
2023-01-24T16:53:11.048Z,10.77
2023-01-24T16:55:42.040Z,9.55
2023-01-24T16:58:10.440Z,10.02
2023-01-24T17:00:38.208Z,10.73
2023-01-24T17:03:05.357Z,10.55
2023-01-24T17:05:32.358Z,11.30
2023-01-24T17:07:59.332Z,10.75
2023-01-24T17:10:26.610Z,12.15
2023-01-24T17:12:54.415Z,10.55
2023-01-24T17:15:21.465Z,9.27
2023-01-24T17:17:48.121Z,10.70
2023-01-24T17:20:14.965Z,11.80
2023-01-24T17:22:41.707Z,10.77
2023-01-24T17:25:09.373Z,11.10
2023-01-24T17:27:36.050Z,11.25
2023-01-24T17:30:03.349Z,11.45
2023-01-24T17:32:34.987Z,10.05
2023-01-24T17:35:01.676Z,11.20
2023-01-24T17:37:28.392Z,11.73
2023-01-24T17:39:55.087Z,10.07
2023-01-24T17:42:22.458Z,10.88
2023-01-24T17:44:49.353Z,10.20
2023-01-24T17:47:16.362Z,10.65
2023-01-24T17:49:43.358Z,14.20
2023-01-24T17:52:10.209Z,12.68
2023-01-24T17:54:37.378Z,12.30
2023-01-24T17:57:04.407Z,16.60
2023-01-24T17:59:31.049Z,14.50
2023-01-24T18:01:57.998Z,11.15
2023-01-24T18:04:24.697Z,10.10
2023-01-24T18:06:51.307Z,10.10
2023-01-24T18:09:17.870Z,9.25
2023-01-24T18:11:44.522Z,10.80
2023-01-24T18:14:12.059Z,11.27
2023-01-24T18:16:42.495Z,10.77
2023-01-24T18:19:09.231Z,11.55
2023-01-24T18:21:35.865Z,10.80
2023-01-24T18:24:03.213Z,11.82
2023-01-24T18:26:31.644Z,11.85
2023-01-24T18:28:59.392Z,11.55
2023-01-24T18:31:26.615Z,10.40
2023-01-24T18:33:55.173Z,12.00
2023-01-24T18:36:22.408Z,12.27
2023-01-24T18:38:50.210Z,11.73
2023-01-24T18:41:16.911Z,10.98
2023-01-24T18:43:43.740Z,14.73
2023-01-24T18:46:12.703Z,11.38
2023-01-24T18:48:41.504Z,10.80
2023-01-24T18:51:10.488Z,10.68
2023-01-24T18:53:37.441Z,13.05
2023-01-24T18:56:05.541Z,13.10
2023-01-24T18:58:34.920Z,11.13
2023-01-24T19:01:10.361Z,12.63
2023-01-24T19:03:37.247Z,11.85
2023-01-24T19:06:04.127Z,12.98
2023-01-24T19:08:30.857Z,12.55
2023-01-24T19:10:57.626Z,12.35
2023-01-24T19:13:24.299Z,12.05
2023-01-24T19:15:51.495Z,12.10
2023-01-24T19:18:20.234Z,11.05
2023-01-24T19:20:47.078Z,11.75
2023-01-24T19:23:13.632Z,12.38
2023-01-24T19:25:40.290Z,11.73
2023-01-24T19:28:06.889Z,11.80
2023-01-24T19:30:33.608Z,11.45
2023-01-24T19:33:00.256Z,11.88
2023-01-24T19:35:26.940Z,12.20
2023-01-24T19:37:54.744Z,11.88
2023-01-24T19:40:21.537Z,12.23
2023-01-24T19:42:48.624Z,12.18
2023-01-24T19:45:16.428Z,12.77
2023-01-24T19:47:43.369Z,12.50
2023-01-24T19:50:11.091Z,12.85
2023-01-24T19:52:38.083Z,13.60
2023-01-24T19:55:06.166Z,13.02
2023-01-24T19:57:33.041Z,12.63
2023-01-24T19:59:59.663Z,12.13
2023-01-24T20:02:26.310Z,13.00
2023-01-24T20:04:53.116Z,12.02
2023-01-24T20:07:20.975Z,12.38
2023-01-24T20:09:47.688Z,12.32
2023-01-24T20:12:14.723Z,13.05
2023-01-24T20:14:41.315Z,12.25
2023-01-24T20:17:07.919Z,12.15
2023-01-24T20:19:34.516Z,12.85
2023-01-24T20:22:01.256Z,12.82
2023-01-24T20:24:29.257Z,12.23
2023-01-24T20:26:56.177Z,12.73
2023-01-24T20:29:23.204Z,12.65
2023-01-24T20:31:49.924Z,12.35
2023-01-24T20:34:18.164Z,12.02
2023-01-24T20:36:47.247Z,12.23
2023-01-24T20:39:13.978Z,12.60
2023-01-24T20:41:43.068Z,13.15
2023-01-24T20:44:18.364Z,12.95
2023-01-24T20:46:48.332Z,12.57
2023-01-24T20:49:14.993Z,12.75
2023-01-24T20:51:41.563Z,12.93
2023-01-24T20:54:10.232Z,12.70
2023-01-24T20:56:36.928Z,13.38
2023-01-24T20:59:04.513Z,13.43
2023-01-24T21:01:31.599Z,13.82
2023-01-24T21:04:00.509Z,12.95
2023-01-24T21:06:27.423Z,12.98
2023-01-24T21:08:55.632Z,11.70
2023-01-24T21:11:24.433Z,12.73
2023-01-24T21:13:56.273Z,12.93
2023-01-24T21:16:24.125Z,13.10
2023-01-24T21:18:53.511Z,14.13
2023-01-24T21:21:22.056Z,13.30
2023-01-24T21:23:48.924Z,12.63
2023-01-24T21:26:16.503Z,13.73
2023-01-24T21:28:44.990Z,13.07
2023-01-24T21:31:16.734Z,12.95
2023-01-24T21:33:44.350Z,13.35
2023-01-24T21:36:17.849Z,14.57
2023-01-24T21:38:45.066Z,12.70
2023-01-24T21:41:32.507Z,13.80
2023-01-24T21:43:59.841Z,12.40
2023-01-24T21:46:26.531Z,14.10
2023-01-24T21:49:25.614Z,12.57
2023-01-24T21:51:54.865Z,12.98
2023-01-24T21:54:26.441Z,13.32
2023-01-24T21:57:29.058Z,13.75
2023-01-24T21:59:58.816Z,14.77
2023-01-24T22:02:28.480Z,14.02
2023-01-24T22:04:55.615Z,13.52
2023-01-24T22:07:24.356Z,14.13
2023-01-24T22:09:56.180Z,13.55
2023-01-24T22:12:22.816Z,14.00
2023-01-24T22:14:50.042Z,13.60
2023-01-24T22:17:21.775Z,14.15
2023-01-24T22:19:57.094Z,13.48
2023-01-24T22:22:47.522Z,14.00
2023-01-24T22:25:46.226Z,14.15
2023-01-24T22:28:21.075Z,14.15
2023-01-24T22:30:48.763Z,13.77
2023-01-24T22:33:15.632Z,14.82
2023-01-24T22:35:43.805Z,14.10
2023-01-24T22:38:10.412Z,13.88
2023-01-24T22:40:37.092Z,13.77
2023-01-24T22:43:03.921Z,14.25
2023-01-24T22:45:30.743Z,13.57
2023-01-24T22:47:57.531Z,14.77
2023-01-24T22:50:25.017Z,15.48
2023-01-24T22:52:52.223Z,13.60
2023-01-24T22:55:18.895Z,14.10
2023-01-24T22:57:45.727Z,14.02
2023-01-24T23:00:15.363Z,13.27
2023-01-24T23:02:42.054Z,14.77
2023-01-24T23:05:12.467Z,14.00
2023-01-24T23:07:39.447Z,14.43
2023-01-24T23:10:06.625Z,13.70
2023-01-24T23:12:52.011Z,13.90
2023-01-24T23:15:37.537Z,14.38
2023-01-24T23:18:08.506Z,14.80
2023-01-24T23:20:53.955Z,15.00
2023-01-24T23:23:20.577Z,14.10
2023-01-24T23:25:49.257Z,15.25
2023-01-24T23:28:15.911Z,15.52
2023-01-24T23:30:59.818Z,14.27
2023-01-24T23:33:34.494Z,14.48
2023-01-24T23:36:02.093Z,14.52
2023-01-24T23:38:30.292Z,14.98
2023-01-24T23:40:56.980Z,13.05
2023-01-24T23:43:23.649Z,15.35
2023-01-24T23:45:50.433Z,14.30
2023-01-24T23:48:17.194Z,14.73
2023-01-24T23:50:43.809Z,14.10
2023-01-24T23:53:10.457Z,14.20
2023-01-24T23:55:37.104Z,14.20
2023-01-24T23:58:04.128Z,14.98
